sensor_id;sensor_type;location;lat;lon;timestamp;pressure;altitude;pressure_sealevel;temperature;humidity
60871;BME280;46714;50.118;14.462;2022-07-29T00:01:59;99065.28;;;18.51;51.97
60871;BME280;46714;50.118;14.462;2022-07-29T00:04:24;99065.28;;;18.51;52.03
60871;BME280;46714;50.118;14.462;2022-07-29T00:06:49;99059.47;;;18.48;52.01
60871;BME280;46714;50.118;14.462;2022-07-29T00:09:15;99058.66;;;18.47;51.15
60871;BME280;46714;50.118;14.462;2022-07-29T00:11:40;99054.78;;;18.43;51.70
60871;BME280;46714;50.118;14.462;2022-07-29T00:14:05;99064.41;;;18.40;52.25
60871;BME280;46714;50.118;14.462;2022-07-29T00:16:31;99063.56;;;18.35;52.31
60871;BME280;46714;50.118;14.462;2022-07-29T00:18:57;99058.31;;;18.33;51.84
60871;BME280;46714;50.118;14.462;2022-07-29T00:21:22;99040.41;;;18.31;52.68
60871;BME280;46714;50.118;14.462;2022-07-29T00:23:47;99039.00;;;18.28;52.75
60871;BME280;46714;50.118;14.462;2022-07-29T00:26:13;99045.91;;;18.26;51.49
60871;BME280;46714;50.118;14.462;2022-07-29T00:28:38;99044.22;;;18.25;51.65
60871;BME280;46714;50.118;14.462;2022-07-29T00:31:03;99030.69;;;18.23;52.71
60871;BME280;46714;50.118;14.462;2022-07-29T00:33:29;99031.25;;;18.20;52.67
60871;BME280;46714;50.118;14.462;2022-07-29T00:35:54;99028.75;;;18.18;52.56
60871;BME280;46714;50.118;14.462;2022-07-29T00:38:19;99032.06;;;18.15;53.13
60871;BME280;46714;50.118;14.462;2022-07-29T00:40:45;99028.72;;;18.08;52.92
60871;BME280;46714;50.118;14.462;2022-07-29T00:43:12;99029.50;;;18.04;53.57
60871;BME280;46714;50.118;14.462;2022-07-29T00:45:38;99025.63;;;17.99;53.30
60871;BME280;46714;50.118;14.462;2022-07-29T00:48:04;99021.47;;;17.97;53.47
60871;BME280;46714;50.118;14.462;2022-07-29T00:50:30;99034.41;;;17.91;53.98
60871;BME280;46714;50.118;14.462;2022-07-29T00:52:57;99033.28;;;17.87;54.00
60871;BME280;46714;50.118;14.462;2022-07-29T00:55:23;99032.16;;;17.83;54.48
60871;BME280;46714;50.118;14.462;2022-07-29T00:57:48;99031.56;;;17.81;54.04
60871;BME280;46714;50.118;14.462;2022-07-29T01:00:16;99027.41;;;17.78;54.26
60871;BME280;46714;50.118;14.462;2022-07-29T01:02:44;99026.84;;;17.76;54.51
60871;BME280;46714;50.118;14.462;2022-07-29T01:05:10;99016.06;;;17.75;54.29
60871;BME280;46714;50.118;14.462;2022-07-29T01:07:37;99024.09;;;17.76;54.25
60871;BME280;46714;50.118;14.462;2022-07-29T01:10:04;99022.44;;;17.75;54.32
60871;BME280;46714;50.118;14.462;2022-07-29T01:12:32;99016.38;;;17.78;52.79
60871;BME280;46714;50.118;14.462;2022-07-29T01:14:59;99018.88;;;17.80;53.17
60871;BME280;46714;50.118;14.462;2022-07-29T01:29:00;99007.66;;;17.87;51.75
60871;BME280;46714;50.118;14.462;2022-07-29T01:31:47;99005.75;;;17.87;53.41
60871;BME280;46714;50.118;14.462;2022-07-29T01:34:23;99001.28;;;17.81;53.33
60871;BME280;46714;50.118;14.462;2022-07-29T01:37:01;99000.13;;;17.77;53.61
60871;BME280;46714;50.118;14.462;2022-07-29T01:39:33;98998.72;;;17.74;53.25
60871;BME280;46714;50.118;14.462;2022-07-29T01:42:03;98991.53;;;17.68;53.83
60871;BME280;46714;50.118;14.462;2022-07-29T01:44:31;99000.91;;;17.67;52.53
60871;BME280;46714;50.118;14.462;2022-07-29T01:47:02;98995.94;;;17.64;52.66
60871;BME280;46714;50.118;14.462;2022-07-29T01:49:35;99002.00;;;17.66;53.60
60871;BME280;46714;50.118;14.462;2022-07-29T01:52:05;98988.50;;;17.65;54.10
60871;BME280;46714;50.118;14.462;2022-07-29T01:54:40;98990.69;;;17.63;52.96
60871;BME280;46714;50.118;14.462;2022-07-29T01:57:09;98994.53;;;17.62;53.49
60871;BME280;46714;50.118;14.462;2022-07-29T01:59:38;98993.44;;;17.63;53.11
60871;BME280;46714;50.118;14.462;2022-07-29T02:02:06;98984.91;;;17.64;52.20
60871;BME280;46714;50.118;14.462;2022-07-29T02:04:35;98986.81;;;17.64;52.86
60871;BME280;46714;50.118;14.462;2022-07-29T02:07:03;98983.81;;;17.65;52.24
60871;BME280;46714;50.118;14.462;2022-07-29T02:09:32;98974.72;;;17.65;52.36
60871;BME280;46714;50.118;14.462;2022-07-29T02:12:00;98987.38;;;17.66;53.05
60871;BME280;46714;50.118;14.462;2022-07-29T02:14:28;98984.06;;;17.64;53.81
60871;BME280;46714;50.118;14.462;2022-07-29T02:16:59;98987.38;;;17.61;52.74
60871;BME280;46714;50.118;14.462;2022-07-29T02:19:26;98984.59;;;17.61;52.94
60871;BME280;46714;50.118;14.462;2022-07-29T02:21:54;98983.53;;;17.62;52.67
60871;BME280;46714;50.118;14.462;2022-07-29T02:24:22;98986.28;;;17.62;54.03
60871;BME280;46714;50.118;14.462;2022-07-29T02:26:49;98975.78;;;17.58;53.52
60871;BME280;46714;50.118;14.462;2022-07-29T02:29:16;98985.16;;;17.57;54.08
60871;BME280;46714;50.118;14.462;2022-07-29T02:31:46;98993.91;;;17.54;53.95
60871;BME280;46714;50.118;14.462;2022-07-29T02:34:14;98988.94;;;17.51;53.90
60871;BME280;46714;50.118;14.462;2022-07-29T02:36:41;98992.81;;;17.50;54.12
60871;BME280;46714;50.118;14.462;2022-07-29T02:39:09;98992.81;;;17.50;53.57
60871;BME280;46714;50.118;14.462;2022-07-29T02:44:12;99000.78;;;17.52;53.21
60871;BME280;46714;50.118;14.462;2022-07-29T02:47:15;98989.78;;;17.52;52.94
60871;BME280;46714;50.118;14.462;2022-07-29T02:49:38;99005.78;;;17.55;53.07
60871;BME280;46714;50.118;14.462;2022-07-29T02:52:16;99003.84;;;17.55;54.11
60871;BME280;46714;50.118;14.462;2022-07-29T02:57:25;98991.16;;;17.54;53.10
60871;BME280;46714;50.118;14.462;2022-07-29T02:59:57;98992.84;;;17.55;53.60
60871;BME280;46714;50.118;14.462;2022-07-29T03:02:28;98983.75;;;17.55;52.97
60871;BME280;46714;50.118;14.462;2022-07-29T03:04:59;98981.56;;;17.57;53.53
60871;BME280;46714;50.118;14.462;2022-07-29T03:07:26;98981.28;;;17.58;53.46
60871;BME280;46714;50.118;14.462;2022-07-29T03:09:53;98980.47;;;17.58;52.56
60871;BME280;46714;50.118;14.462;2022-07-29T03:12:19;98982.13;;;17.59;52.77
60871;BME280;46714;50.118;14.462;2022-07-29T03:14:45;98977.47;;;17.59;52.75
60871;BME280;46714;50.118;14.462;2022-07-29T03:17:11;98971.09;;;17.59;54.43
60871;BME280;46714;50.118;14.462;2022-07-29T03:19:37;98976.31;;;17.55;54.31
60871;BME280;46714;50.118;14.462;2022-07-29T03:22:04;98977.13;;;17.51;53.75
60871;BME280;46714;50.118;14.462;2022-07-29T03:24:31;98972.69;;;17.50;54.50
60871;BME280;46714;50.118;14.462;2022-07-29T03:27:00;98986.16;;;17.46;54.43
60871;BME280;46714;50.118;14.462;2022-07-29T03:29:26;98982.28;;;17.42;54.03
60871;BME280;46714;50.118;14.462;2022-07-29T03:31:52;98985.03;;;17.42;54.35
60871;BME280;46714;50.118;14.462;2022-07-29T03:34:18;98991.91;;;17.40;54.27
60871;BME280;46714;50.118;14.462;2022-07-29T03:36:43;98992.16;;;17.38;54.49
60871;BME280;46714;50.118;14.462;2022-07-29T03:39:08;98985.50;;;17.34;54.51
60871;BME280;46714;50.118;14.462;2022-07-29T03:41:35;98985.78;;;17.32;54.48
60871;BME280;46714;50.118;14.462;2022-07-29T03:44:04;98986.06;;;17.31;54.34
60871;BME280;46714;50.118;14.462;2022-07-29T03:46:32;98991.56;;;17.31;54.13
60871;BME280;46714;50.118;14.462;2022-07-29T03:49:01;98984.41;;;17.30;54.24
60871;BME280;46714;50.118;14.462;2022-07-29T03:51:29;98985.47;;;17.29;55.11
60871;BME280;46714;50.118;14.462;2022-07-29T03:53:55;98983.84;;;17.28;54.42
60871;BME280;46714;50.118;14.462;2022-07-29T03:56:21;98977.75;;;17.26;54.25
60871;BME280;46714;50.118;14.462;2022-07-29T03:58:49;98976.09;;;17.25;54.00
60871;BME280;46714;50.118;14.462;2022-07-29T04:01:16;98970.59;;;17.25;54.38
60871;BME280;46714;50.118;14.462;2022-07-29T04:03:43;98966.19;;;17.24;54.65
60871;BME280;46714;50.118;14.462;2022-07-29T04:06:12;98967.84;;;17.25;55.25
60871;BME280;46714;50.118;14.462;2022-07-29T04:08:38;98959.03;;;17.23;54.95
60871;BME280;46714;50.118;14.462;2022-07-29T04:11:04;98968.13;;;17.23;55.10
60871;BME280;46714;50.118;14.462;2022-07-29T04:13:30;98960.94;;;17.22;54.95
60871;BME280;46714;50.118;14.462;2022-07-29T04:15:56;98975.81;;;17.21;56.00
60871;BME280;46714;50.118;14.462;2022-07-29T04:18:22;98970.31;;;17.21;55.30
60871;BME280;46714;50.118;14.462;2022-07-29T04:20:48;98981.31;;;17.21;55.68
60871;BME280;46714;50.118;14.462;2022-07-29T04:23:13;98982.66;;;17.19;55.66
60871;BME280;46714;50.118;14.462;2022-07-29T04:25:39;98988.41;;;17.17;55.91
60871;BME280;46714;50.118;14.462;2022-07-29T04:28:05;98993.09;;;17.16;56.40
60871;BME280;46714;50.118;14.462;2022-07-29T04:30:32;98985.38;;;17.13;56.68
60871;BME280;46714;50.118;14.462;2022-07-29T04:32:58;98993.91;;;17.17;57.20
60871;BME280;46714;50.118;14.462;2022-07-29T04:35:25;98988.41;;;17.17;57.99
60871;BME280;46714;50.118;14.462;2022-07-29T04:37:51;98988.16;;;17.19;57.73
60871;BME280;46714;50.118;14.462;2022-07-29T04:40:17;98974.41;;;17.19;55.88
60871;BME280;46714;50.118;14.462;2022-07-29T04:42:42;98979.63;;;17.20;56.29
60871;BME280;46714;50.118;14.462;2022-07-29T04:45:07;98983.75;;;17.17;57.08
60871;BME280;46714;50.118;14.462;2022-07-29T04:47:33;98989.25;;;17.17;57.03
60871;BME280;46714;50.118;14.462;2022-07-29T04:49:58;98990.34;;;17.16;56.60
60871;BME280;46714;50.118;14.462;2022-07-29T04:52:24;98990.34;;;17.16;56.43
60871;BME280;46714;50.118;14.462;2022-07-29T04:54:49;98996.41;;;17.19;56.25
60871;BME280;46714;50.118;14.462;2022-07-29T04:57:14;98996.13;;;17.20;55.44
60871;BME280;46714;50.118;14.462;2022-07-29T04:59:40;98990.13;;;17.23;55.10
60871;BME280;46714;50.118;14.462;2022-07-29T05:02:05;98993.69;;;17.24;55.18
60871;BME280;46714;50.118;14.462;2022-07-29T05:04:31;98991.53;;;17.26;54.94
60871;BME280;46714;50.118;14.462;2022-07-29T05:06:56;98995.41;;;17.30;54.99
60871;BME280;46714;50.118;14.462;2022-07-29T05:09:22;98998.44;;;17.33;56.26
60871;BME280;46714;50.118;14.462;2022-07-29T05:11:47;99010.28;;;17.34;56.85
60871;BME280;46714;50.118;14.462;2022-07-29T05:14:13;99013.03;;;17.34;56.74
60871;BME280;46714;50.118;14.462;2022-07-29T05:16:38;99007.00;;;17.32;57.18
60871;BME280;46714;50.118;14.462;2022-07-29T05:19:07;99007.53;;;17.34;56.81
60871;BME280;46714;50.118;14.462;2022-07-29T05:21:32;98998.78;;;17.42;56.35
60871;BME280;46714;50.118;14.462;2022-07-29T05:23:57;98992.28;;;17.53;56.82
60871;BME280;46714;50.118;14.462;2022-07-29T05:26:23;98987.09;;;17.62;55.45
60871;BME280;46714;50.118;14.462;2022-07-29T05:28:48;98987.38;;;17.66;55.71
60871;BME280;46714;50.118;14.462;2022-07-29T05:31:13;98982.47;;;17.73;55.10
60871;BME280;46714;50.118;14.462;2022-07-29T05:33:39;98993.03;;;17.81;54.37
60871;BME280;46714;50.118;14.462;2022-07-29T05:36:06;98999.69;;;17.90;54.15
60871;BME280;46714;50.118;14.462;2022-07-29T05:38:32;99002.47;;;17.95;53.32
60871;BME280;46714;50.118;14.462;2022-07-29T05:40:58;99001.41;;;18.02;53.33
60871;BME280;46714;50.118;14.462;2022-07-29T05:43:24;98992.59;;;18.05;53.46
60871;BME280;46714;50.118;14.462;2022-07-29T05:45:50;98994.03;;;18.12;53.03
60871;BME280;46714;50.118;14.462;2022-07-29T05:48:16;98992.09;;;18.18;53.53
60871;BME280;46714;50.118;14.462;2022-07-29T05:50:42;99000.94;;;18.25;53.28
60871;BME280;46714;50.118;14.462;2022-07-29T05:53:07;98999.06;;;18.31;53.15
60871;BME280;46714;50.118;14.462;2022-07-29T05:55:32;98994.94;;;18.38;52.78
60871;BME280;46714;50.118;14.462;2022-07-29T05:57:58;98988.63;;;18.48;52.62
60871;BME280;46714;50.118;14.462;2022-07-29T06:00:23;98998.59;;;18.54;52.24
60871;BME280;46714;50.118;14.462;2022-07-29T06:02:48;99000.53;;;18.64;53.24
60871;BME280;46714;50.118;14.462;2022-07-29T06:05:14;98989.81;;;18.68;53.22
60871;BME280;46714;50.118;14.462;2022-07-29T06:07:40;98988.16;;;18.72;51.25
60871;BME280;46714;50.118;14.462;2022-07-29T06:10:06;98983.50;;;18.77;50.86
60871;BME280;46714;50.118;14.462;2022-07-29T06:12:31;98985.44;;;18.87;50.90
60871;BME280;46714;50.118;14.462;2022-07-29T06:14:57;98982.97;;;18.96;50.82
60871;BME280;46714;50.118;14.462;2022-07-29T06:17:22;98986.03;;;19.04;50.91
60871;BME280;46714;50.118;14.462;2022-07-29T06:19:48;98984.09;;;19.10;50.42
60871;BME280;46714;50.118;14.462;2022-07-29T06:22:15;98983.53;;;19.13;50.32
60871;BME280;46714;50.118;14.462;2022-07-29T06:24:41;98990.69;;;19.19;50.42
60871;BME280;46714;50.118;14.462;2022-07-29T06:27:10;98985.22;;;19.24;50.97
60871;BME280;46714;50.118;14.462;2022-07-29T06:29:36;98986.28;;;19.29;50.54
60871;BME280;46714;50.118;14.462;2022-07-29T06:32:01;98983.81;;;19.27;50.02
60871;BME280;46714;50.118;14.462;2022-07-29T06:34:27;98987.97;;;19.30;50.54
60871;BME280;46714;50.118;14.462;2022-07-29T06:36:53;98987.13;;;19.29;50.41
60871;BME280;46714;50.118;14.462;2022-07-29T06:39:18;98995.41;;;19.29;49.99
60871;BME280;46714;50.118;14.462;2022-07-29T06:41:46;99005.91;;;19.27;49.89
60871;BME280;46714;50.118;14.462;2022-07-29T06:44:15;99009.75;;;19.26;50.13
60871;BME280;46714;50.118;14.462;2022-07-29T06:46:41;99009.50;;;19.22;51.07
60871;BME280;46714;50.118;14.462;2022-07-29T06:49:07;99020.53;;;19.22;52.31
60871;BME280;46714;50.118;14.462;2022-07-29T06:51:32;99024.66;;;19.25;51.18
60871;BME280;46714;50.118;14.462;2022-07-29T06:53:58;99016.13;;;19.27;51.63
60871;BME280;46714;50.118;14.462;2022-07-29T06:56:24;99018.88;;;19.27;51.11
60871;BME280;46714;50.118;14.462;2022-07-29T06:58:50;99016.66;;;19.29;50.49
60871;BME280;46714;50.118;14.462;2022-07-29T07:01:15;99014.19;;;19.32;50.18
60871;BME280;46714;50.118;14.462;2022-07-29T07:03:40;99009.75;;;19.36;50.75
60871;BME280;46714;50.118;14.462;2022-07-29T07:06:06;99011.41;;;19.37;50.66
60871;BME280;46714;50.118;14.462;2022-07-29T07:08:32;99018.03;;;19.41;50.77
60871;BME280;46714;50.118;14.462;2022-07-29T07:10:58;99016.66;;;19.44;50.58
60871;BME280;46714;50.118;14.462;2022-07-29T07:13:24;99022.72;;;19.46;50.18
60871;BME280;46714;50.118;14.462;2022-07-29T07:15:49;99010.03;;;19.50;50.92
60871;BME280;46714;50.118;14.462;2022-07-29T07:18:16;99017.22;;;19.56;50.48
60871;BME280;46714;50.118;14.462;2022-07-29T07:20:42;99022.72;;;19.61;50.30
60871;BME280;46714;50.118;14.462;2022-07-29T07:23:08;99020.28;;;19.70;50.28
60871;BME280;46714;50.118;14.462;2022-07-29T07:25:34;99019.13;;;19.76;49.61
60871;BME280;46714;50.118;14.462;2022-07-29T07:27:59;99018.31;;;19.86;49.45
60871;BME280;46714;50.118;14.462;2022-07-29T07:30:25;99019.66;;;19.94;49.04
60871;BME280;46714;50.118;14.462;2022-07-29T07:32:51;99019.09;;;20.07;49.05
60871;BME280;46714;50.118;14.462;2022-07-29T07:35:16;99016.03;;;20.14;49.06
60871;BME280;46714;50.118;14.462;2022-07-29T07:37:41;99015.44;;;20.22;48.64
60871;BME280;46714;50.118;14.462;2022-07-29T07:40:08;99009.88;;;20.32;48.89
60871;BME280;46714;50.118;14.462;2022-07-29T07:42:35;99008.72;;;20.43;49.14
60871;BME280;46714;50.118;14.462;2022-07-29T07:45:00;99012.28;;;20.49;48.91
60871;BME280;46714;50.118;14.462;2022-07-29T07:47:26;99018.31;;;20.61;49.01
60871;BME280;46714;50.118;14.462;2022-07-29T07:49:51;99006.41;;;20.71;48.01
60871;BME280;46714;50.118;14.462;2022-07-29T07:52:18;99003.59;;;20.76;47.71
60871;BME280;46714;50.118;14.462;2022-07-29T07:54:44;98994.19;;;20.72;47.71
60871;BME280;46714;50.118;14.462;2022-07-29T07:57:10;98991.44;;;20.72;48.25
60871;BME280;46714;50.118;14.462;2022-07-29T07:59:36;98997.25;;;20.76;47.90
60871;BME280;46714;50.118;14.462;2022-07-29T08:02:02;98995.00;;;20.78;47.83
60871;BME280;46714;50.118;14.462;2022-07-29T08:04:28;98985.59;;;20.79;48.21
60871;BME280;46714;50.118;14.462;2022-07-29T08:06:54;98991.66;;;20.81;48.41
60871;BME280;46714;50.118;14.462;2022-07-29T08:09:20;98991.91;;;20.84;48.49
60871;BME280;46714;50.118;14.462;2022-07-29T08:11:46;98996.03;;;20.92;48.28
60871;BME280;46714;50.118;14.462;2022-07-29T08:14:11;98995.19;;;20.91;47.13
60871;BME280;46714;50.118;14.462;2022-07-29T08:16:38;98993.50;;;20.96;49.21
60871;BME280;46714;50.118;14.462;2022-07-29T08:19:04;98997.28;;;21.05;47.60
60871;BME280;46714;50.118;14.462;2022-07-29T08:21:30;99001.66;;;21.16;47.48
60871;BME280;46714;50.118;14.462;2022-07-29T08:23:55;98996.59;;;21.23;47.03
60871;BME280;46714;50.118;14.462;2022-07-29T08:26:41;99000.94;;;21.34;46.88
60871;BME280;46714;50.118;14.462;2022-07-29T08:29:07;99002.25;;;21.47;47.59
60871;BME280;46714;50.118;14.462;2022-07-29T08:31:34;99007.19;;;21.56;47.21
60871;BME280;46714;50.118;14.462;2022-07-29T08:34:00;99007.13;;;21.61;49.30
60871;BME280;46714;50.118;14.462;2022-07-29T08:36:25;99016.84;;;21.58;46.76
60871;BME280;46714;50.118;14.462;2022-07-29T08:38:51;99002.13;;;21.63;46.58
60871;BME280;46714;50.118;14.462;2022-07-29T08:41:17;99009.38;;;21.59;46.70
60871;BME280;46714;50.118;14.462;2022-07-29T08:43:44;99004.09;;;21.57;46.97
60871;BME280;46714;50.118;14.462;2022-07-29T08:46:09;99002.47;;;21.56;46.71
60871;BME280;46714;50.118;14.462;2022-07-29T08:48:35;99009.09;;;21.55;46.63
60871;BME280;46714;50.118;14.462;2022-07-29T08:51:01;99013.50;;;21.61;46.96
60871;BME280;46714;50.118;14.462;2022-07-29T08:53:26;99015.91;;;21.68;48.19
60871;BME280;46714;50.118;14.462;2022-07-29T08:55:53;99021.41;;;21.73;47.02
60871;BME280;46714;50.118;14.462;2022-07-29T08:58:19;99010.03;;;21.74;47.38
60871;BME280;46714;50.118;14.462;2022-07-29T09:00:49;99018.00;;;21.81;46.70
60871;BME280;46714;50.118;14.462;2022-07-29T09:03:20;99009.38;;;21.83;47.28
60871;BME280;46714;50.118;14.462;2022-07-29T09:05:47;99013.78;;;21.89;46.53
60871;BME280;46714;50.118;14.462;2022-07-29T09:08:13;99007.63;;;21.92;46.27
60871;BME280;46714;50.118;14.462;2022-07-29T09:10:39;99014.31;;;21.91;46.63
60871;BME280;46714;50.118;14.462;2022-07-29T09:13:05;99006.25;;;21.94;46.86
60871;BME280;46714;50.118;14.462;2022-07-29T09:15:30;98999.28;;;21.97;47.07
60871;BME280;46714;50.118;14.462;2022-07-29T09:17:56;99007.25;;;22.04;47.20
60871;BME280;46714;50.118;14.462;2022-07-29T09:20:23;99004.63;;;22.12;46.89
60871;BME280;46714;50.118;14.462;2022-07-29T09:22:49;99004.28;;;22.24;47.03
60871;BME280;46714;50.118;14.462;2022-07-29T09:25:36;99004.50;;;22.28;47.00
60871;BME280;46714;50.118;14.462;2022-07-29T09:28:06;99009.41;;;22.36;46.63
60871;BME280;46714;50.118;14.462;2022-07-29T09:30:33;99004.59;;;22.42;46.50
60871;BME280;46714;50.118;14.462;2022-07-29T09:33:00;99006.47;;;22.46;45.99
60871;BME280;46714;50.118;14.462;2022-07-29T09:35:29;99000.31;;;22.49;46.59
60871;BME280;46714;50.118;14.462;2022-07-29T09:37:55;98996.38;;;22.55;47.56
60871;BME280;46714;50.118;14.462;2022-07-29T09:40:22;98997.44;;;22.59;46.33
60871;BME280;46714;50.118;14.462;2022-07-29T09:42:52;98996.16;;;22.71;47.83
60871;BME280;46714;50.118;14.462;2022-07-29T09:47:58;98991.13;;;22.92;46.73
60871;BME280;46714;50.118;14.462;2022-07-29T09:50:40;98998.13;;;23.08;48.57
60871;BME280;46714;50.118;14.462;2022-07-29T09:53:06;98985.72;;;23.19;47.38
60871;BME280;46714;50.118;14.462;2022-07-29T09:55:31;98988.41;;;23.25;47.95
60871;BME280;46714;50.118;14.462;2022-07-29T10:00:42;98983.56;;;23.16;46.94
60871;BME280;46714;50.118;14.462;2022-07-29T10:03:08;98978.53;;;23.18;46.20
60871;BME280;46714;50.118;14.462;2022-07-29T10:05:34;98979.28;;;23.24;46.30
60871;BME280;46714;50.118;14.462;2022-07-29T10:07:59;98980.84;;;23.30;45.62
60871;BME280;46714;50.118;14.462;2022-07-29T10:10:25;98980.13;;;23.38;46.51
60871;BME280;46714;50.118;14.462;2022-07-29T10:15:20;98980.75;;;23.35;45.66
60871;BME280;46714;50.118;14.462;2022-07-29T10:17:47;98976.84;;;23.36;45.68
60871;BME280;46714;50.118;14.462;2022-07-29T10:20:13;98983.53;;;23.35;46.65
60871;BME280;46714;50.118;14.462;2022-07-29T10:22:39;98984.56;;;23.39;46.99
60871;BME280;46714;50.118;14.462;2022-07-29T10:25:05;98976.75;;;23.41;46.01
60871;BME280;46714;50.118;14.462;2022-07-29T10:29:42;98974.19;;;23.45;45.80
60871;BME280;46714;50.118;14.462;2022-07-29T10:32:10;98975.94;;;23.41;47.79
60871;BME280;46714;50.118;14.462;2022-07-29T10:43:42;98970.81;;;23.48;47.65
60871;BME280;46714;50.118;14.462;2022-07-29T10:46:10;98969.97;;;23.48;47.45
60871;BME280;46714;50.118;14.462;2022-07-29T10:54:17;98968.25;;;23.66;48.06
60871;BME280;46714;50.118;14.462;2022-07-29T11:07:25;98970.34;;;23.74;47.25
60871;BME280;46714;50.118;14.462;2022-07-29T11:20:30;98971.72;;;24.18;46.83
60871;BME280;46714;50.118;14.462;2022-07-29T11:22:59;98970.69;;;24.28;45.94
60871;BME280;46714;50.118;14.462;2022-07-29T11:25:25;98976.56;;;24.40;45.94
60871;BME280;46714;50.118;14.462;2022-07-29T11:27:51;98973.88;;;24.49;46.89
60871;BME280;46714;50.118;14.462;2022-07-29T11:30:46;98971.94;;;24.49;45.50
60871;BME280;46714;50.118;14.462;2022-07-29T11:33:28;98977.09;;;24.56;45.99
60871;BME280;46714;50.118;14.462;2022-07-29T11:38:35;98967.81;;;24.60;46.56
60871;BME280;46714;50.118;14.462;2022-07-29T11:43:48;98968.09;;;24.45;45.14
60871;BME280;46714;50.118;14.462;2022-07-29T11:46:41;98975.25;;;24.51;46.51
60871;BME280;46714;50.118;14.462;2022-07-29T11:49:11;98970.81;;;24.50;45.74
60871;BME280;46714;50.118;14.462;2022-07-29T11:51:38;98973.06;;;24.48;46.42
60871;BME280;46714;50.118;14.462;2022-07-29T11:54:04;98969.75;;;24.46;45.49
60871;BME280;46714;50.118;14.462;2022-07-29T11:56:33;98970.28;;;24.48;45.40
60871;BME280;46714;50.118;14.462;2022-07-29T11:59:04;98969.69;;;24.51;45.51
60871;BME280;46714;50.118;14.462;2022-07-29T12:01:31;98971.94;;;24.49;46.66
60871;BME280;46714;50.118;14.462;2022-07-29T12:04:06;98970.28;;;24.48;46.78
60871;BME280;46714;50.118;14.462;2022-07-29T12:06:35;98967.81;;;24.46;46.79
60871;BME280;46714;50.118;14.462;2022-07-29T12:09:06;98970.78;;;24.36;46.41
60871;BME280;46714;50.118;14.462;2022-07-29T12:11:32;98968.44;;;24.30;46.65
60871;BME280;46714;50.118;14.462;2022-07-29T12:13:58;98966.16;;;24.18;46.54
60871;BME280;46714;50.118;14.462;2022-07-29T12:16:33;98961.03;;;24.11;47.80
60871;BME280;46714;50.118;14.462;2022-07-29T12:19:00;98956.38;;;24.07;47.16
60871;BME280;46714;50.118;14.462;2022-07-29T12:21:27;98955.06;;;24.04;47.36
60871;BME280;46714;50.118;14.462;2022-07-29T12:23:54;98955.06;;;24.04;48.35
60871;BME280;46714;50.118;14.462;2022-07-29T12:26:20;98946.19;;;24.02;48.45
60871;BME280;46714;50.118;14.462;2022-07-29T12:28:46;98948.34;;;24.05;47.91
60871;BME280;46714;50.118;14.462;2022-07-29T12:31:14;98940.22;;;24.09;47.92
60871;BME280;46714;50.118;14.462;2022-07-29T12:33:41;98943.53;;;24.11;47.61
60871;BME280;46714;50.118;14.462;2022-07-29T12:36:07;98935.47;;;24.09;49.00
60871;BME280;46714;50.118;14.462;2022-07-29T12:38:33;98945.06;;;24.03;49.10
60871;BME280;46714;50.118;14.462;2022-07-29T12:41:00;98935.69;;;23.99;48.95
60871;BME280;46714;50.118;14.462;2022-07-29T12:43:26;98933.09;;;24.02;47.87
60871;BME280;46714;50.118;14.462;2022-07-29T12:45:52;98933.50;;;24.10;47.75
60871;BME280;46714;50.118;14.462;2022-07-29T12:48:37;98933.59;;;24.18;48.42
60871;BME280;46714;50.118;14.462;2022-07-29T12:51:05;98930.41;;;24.25;48.01
60871;BME280;46714;50.118;14.462;2022-07-29T12:53:32;98921.13;;;24.30;47.29
60871;BME280;46714;50.118;14.462;2022-07-29T12:55:58;98928.03;;;24.32;46.94
60871;BME280;46714;50.118;14.462;2022-07-29T12:58:37;98927.59;;;24.39;49.14
60871;BME280;46714;50.118;14.462;2022-07-29T13:01:08;98927.00;;;24.42;47.76
60871;BME280;46714;50.118;14.462;2022-07-29T13:03:52;98924.66;;;24.49;47.27
60871;BME280;46714;50.118;14.462;2022-07-29T13:11:41;98917.50;;;24.57;48.17
60871;BME280;46714;50.118;14.462;2022-07-29T13:14:09;98921.00;;;24.62;47.11
60871;BME280;46714;50.118;14.462;2022-07-29T13:16:36;98922.34;;;24.65;46.74
60871;BME280;46714;50.118;14.462;2022-07-29T13:19:31;98915.50;;;24.71;46.89
60871;BME280;46714;50.118;14.462;2022-07-29T13:22:23;98910.81;;;24.80;47.36
60871;BME280;46714;50.118;14.462;2022-07-29T13:24:50;98912.34;;;24.86;46.64
60871;BME280;46714;50.118;14.462;2022-07-29T13:27:21;98901.72;;;24.88;46.16
60871;BME280;46714;50.118;14.462;2022-07-29T13:29:48;98910.59;;;24.91;46.04
60871;BME280;46714;50.118;14.462;2022-07-29T13:32:16;98909.28;;;24.97;46.50
60871;BME280;46714;50.118;14.462;2022-07-29T13:34:41;98903.41;;;24.98;46.66
60871;BME280;46714;50.118;14.462;2022-07-29T13:37:07;98901.78;;;24.97;46.21
60871;BME280;46714;50.118;14.462;2022-07-29T13:39:32;98907.34;;;24.97;46.80
60871;BME280;46714;50.118;14.462;2022-07-29T13:41:58;98901.44;;;24.99;47.40
60871;BME280;46714;50.118;14.462;2022-07-29T13:44:23;98887.22;;;25.00;45.83
60871;BME280;46714;50.118;14.462;2022-07-29T13:46:48;98892.78;;;25.00;45.59
60871;BME280;46714;50.118;14.462;2022-07-29T13:49:14;98888.38;;;24.99;47.45
60871;BME280;46714;50.118;14.462;2022-07-29T13:51:40;98890.00;;;25.00;46.15
60871;BME280;46714;50.118;14.462;2022-07-29T13:54:05;98881.84;;;25.04;46.10
60871;BME280;46714;50.118;14.462;2022-07-29T13:56:31;98871.53;;;25.04;45.86
60871;BME280;46714;50.118;14.462;2022-07-29T13:58:56;98876.66;;;25.11;47.31
60871;BME280;46714;50.118;14.462;2022-07-29T14:01:22;98873.94;;;25.20;47.27
60871;BME280;46714;50.118;14.462;2022-07-29T14:03:47;98865.31;;;25.30;47.42
60871;BME280;46714;50.118;14.462;2022-07-29T14:06:13;98868.44;;;25.37;46.07